Time;durP1;ratioP1;P1;durP2;ratioP2;P2;SDS_P1;SDS_P2;PMS_P1;PMS_P2;Temp;Humidity;BMP_temperature;BMP_pressure;BME280_temperature;BME280_humidity;BME280_pressure;Samples;Min_cycle;Max_cycle;Signal;HPM_P1;HPM_P2
2023/10/08 00:03:38;;;;;;;46.50;30.85;;;20.50;99.80;;;;;;5030992;28;20036;-68
2023/10/08 00:06:42;;;;;;;46.88;31.73;;;20.50;99.90;;;;;;5030687;28;20052;-69
2023/10/08 00:09:51;;;;;;;45.75;30.30;;;20.50;99.90;;;;;;5030966;28;20134;-68
2023/10/08 00:12:55;;;;;;;45.30;30.52;;;20.50;99.90;;;;;;5030771;28;20128;-68
2023/10/08 00:16:00;;;;;;;47.40;30.58;;;20.50;99.60;;;;;;5030961;28;20060;-68
2023/10/08 00:19:08;;;;;;;42.63;30.60;;;20.50;99.90;;;;;;5029904;28;20044;-68
2023/10/08 00:22:13;;;;;;;39.53;29.80;;;20.30;99.90;;;;;;5030596;28;20112;-69
2023/10/08 00:25:17;;;;;;;37.45;28.65;;;20.30;99.90;;;;;;5030669;28;20407;-68
2023/10/08 00:28:22;;;;;;;47.45;28.48;;;20.40;99.80;;;;;;5032388;28;20049;-69
2023/10/08 00:31:31;;;;;;;41.75;28.15;;;20.40;99.40;;;;;;5033994;28;20052;-69
2023/10/08 00:34:41;;;;;;;47.10;31.63;;;19.70;99.40;;;;;;5034847;28;20389;-68
2023/10/08 00:37:45;;;;;;;49.13;33.22;;;19.50;99.60;;;;;;5034531;28;20064;-68
2023/10/08 00:40:49;;;;;;;46.47;33.10;;;21.20;99.90;;;;;;5034467;28;20040;-67
2023/10/08 00:43:55;;;;;;;43.70;30.13;;;20.20;99.90;;;;;;5033707;28;20048;-69
2023/10/08 00:47:01;;;;;;;45.47;30.15;;;20.10;99.90;;;;;;5034789;28;20045;-68
2023/10/08 00:50:10;;;;;;;36.90;28.33;;;19.90;99.90;;;;;;5033649;28;20409;-69
2023/10/08 00:53:23;;;;;;;38.50;29.05;;;19.20;99.90;;;;;;5033425;28;20052;-68
2023/10/08 00:56:46;;;;;;;43.25;29.50;;;20.00;99.90;;;;;;5034167;28;20044;-68
2023/10/08 00:59:53;;;;;;;37.88;28.52;;;20.00;99.90;;;;;;5034362;28;20503;-68
2023/10/08 01:03:01;;;;;;;42.58;28.95;;;20.10;99.90;;;;;;5034104;28;20060;-69
2023/10/08 01:06:10;;;;;;;38.95;29.17;;;20.10;99.90;;;;;;5034229;28;20519;-68
2023/10/08 01:09:26;;;;;;;42.95;29.30;;;18.40;99.30;;;;;;5033427;28;20044;-68
2023/10/08 01:15:37;;;;;;;37.85;30.10;;;20.10;99.90;;;;;;5033124;28;20524;-68
2023/10/08 01:18:43;;;;;;;40.67;30.00;;;20.00;99.80;;;;;;5032898;28;20053;-69
2023/10/08 01:21:47;;;;;;;41.83;30.33;;;19.90;99.90;;;;;;5033801;28;20048;-69
2023/10/08 01:24:51;;;;;;;42.03;32.17;;;18.90;99.80;;;;;;5032802;28;20393;-69
2023/10/08 01:27:58;;;;;;;41.85;31.70;;;19.90;99.90;;;;;;5033492;28;20036;-68
2023/10/08 01:31:03;;;;;;;41.13;30.33;;;19.70;99.90;;;;;;5032626;28;20053;-67
2023/10/08 01:34:07;;;;;;;43.78;30.20;;;19.60;99.90;;;;;;5033620;28;20041;-68
2023/10/08 01:37:17;;;;;;;42.75;29.88;;;19.80;99.90;;;;;;5033418;28;20069;-68
2023/10/08 01:40:21;;;;;;;41.97;29.92;;;20.20;99.90;;;;;;5033587;28;20116;-69
2023/10/08 01:43:27;;;;;;;39.20;29.67;;;19.90;99.90;;;;;;5033287;28;20393;-67
2023/10/08 01:46:32;;;;;;;41.42;29.08;;;18.60;99.90;;;;;;5032432;28;20045;-67
2023/10/08 01:49:38;;;;;;;42.33;29.95;;;19.70;99.90;;;;;;5032996;28;20105;-68
2023/10/08 01:52:46;;;;;;;42.17;29.52;;;19.70;99.90;;;;;;5032978;28;20056;-68
2023/10/08 01:55:51;;;;;;;41.20;28.50;;;19.70;99.90;;;;;;5032465;28;20060;-68
2023/10/08 01:58:55;;;;;;;39.28;27.88;;;20.20;99.90;;;;;;5032252;28;20048;-68
2023/10/08 02:01:59;;;;;;;37.97;26.67;;;19.70;99.90;;;;;;5032331;28;20039;-68
2023/10/08 02:05:04;;;;;;;38.97;28.42;;;19.10;99.90;;;;;;5032911;28;20060;-68
2023/10/08 02:08:12;;;;;;;39.42;30.05;;;19.50;99.90;;;;;;5032948;28;20503;-70
2023/10/08 02:11:16;;;;;;;40.35;29.98;;;19.40;99.90;;;;;;5031629;28;20413;-68
2023/10/08 02:14:22;;;;;;;36.60;27.92;;;19.10;99.90;;;;;;5032030;28;20052;-68
2023/10/08 02:17:28;;;;;;;37.17;27.92;;;19.40;99.90;;;;;;5031939;28;20040;-68
2023/10/08 02:20:32;;;;;;;41.00;28.50;;;18.20;99.90;;;;;;5032085;28;20405;-68
2023/10/08 02:23:37;;;;;;;42.00;28.35;;;19.40;99.90;;;;;;5031559;28;20727;-68
2023/10/08 02:26:42;;;;;;;39.85;28.20;;;20.00;99.90;;;;;;5031677;28;20036;-68
2023/10/08 02:29:46;;;;;;;40.20;28.25;;;19.80;99.90;;;;;;5031624;28;20040;-69
2023/10/08 02:32:51;;;;;;;36.97;25.80;;;19.50;99.90;;;;;;5031810;28;20064;-68
2023/10/08 02:35:54;;;;;;;39.13;27.92;;;19.50;99.90;;;;;;5032297;28;20389;-68
2023/10/08 02:38:59;;;;;;;38.80;26.73;;;;;;;;;;5032325;28;20045;-69
2023/10/08 02:42:10;;;;;;;42.38;26.27;;;;;;;;;;5032802;28;20032;-69
2023/10/08 02:45:16;;;;;;;35.97;25.98;;;;;;;;;;5032205;28;20049;-69
2023/10/08 02:48:20;;;;;;;36.05;26.50;;;19.50;99.90;;;;;;5031296;28;20040;-69
2023/10/08 02:51:24;;;;;;;37.03;25.77;;;;;;;;;;5030696;28;20080;-68
2023/10/08 02:54:32;;;;;;;37.58;25.60;;;;;;;;;;5032061;28;20048;-68
2023/10/08 02:57:37;;;;;;;37.33;26.00;;;19.30;99.90;;;;;;5032219;28;20621;-68
2023/10/08 03:00:42;;;;;;;35.00;26.85;;;;;;;;;;5032068;28;20393;-68
2023/10/08 03:03:46;;;;;;;39.78;27.70;;;;;;;;;;5032019;28;20060;-69
2023/10/08 03:06:50;;;;;;;34.40;25.30;;;;;;;;;;5031701;28;20048;-69
2023/10/08 03:10:03;;;;;;;37.05;26.35;;;;;;;;;;5031161;28;20044;-68
2023/10/08 03:13:10;;;;;;;36.28;25.63;;;19.20;99.90;;;;;;5030627;28;20072;-68
2023/10/08 03:16:21;;;;;;;37.88;24.80;;;;;;;;;;5030706;28;20393;-68
2023/10/08 03:19:25;;;;;;;38.05;25.63;;;;;;;;;;5030852;28;20104;-69
2023/10/08 03:22:33;;;;;;;35.58;24.25;;;;;;;;;;5030764;28;20400;-68
2023/10/08 03:25:41;;;;;;;38.13;24.73;;;18.30;99.90;;;;;;5030565;28;20044;-68
2023/10/08 03:28:45;;;;;;;33.75;25.75;;;;;;;;;;5031633;28;20044;-68
2023/10/08 03:31:50;;;;;;;36.30;26.52;;;;;;;;;;5031092;28;20052;-69
2023/10/08 03:34:59;;;;;;;34.88;25.20;;;;;;;;;;5018750;28;20037;-67
2023/10/08 03:41:28;;;;;;;31.45;23.35;;;20.20;99.90;;;;;;5031468;28;20516;-68
2023/10/08 03:44:32;;;;;;;35.35;25.10;;;19.70;99.90;;;;;;5030509;28;20053;-68
2023/10/08 03:47:38;;;;;;;34.38;24.10;;;18.80;99.90;;;;;;5031275;28;20045;-69
2023/10/08 03:50:43;;;;;;;31.98;22.83;;;;;;;;;;5030810;28;20048;-68
2023/10/08 03:54:15;;;;;;;31.08;22.25;;;19.00;99.90;;;;;;5030966;28;20052;-68
2023/10/08 03:57:25;;;;;;;32.83;22.30;;;;;;;;;;5030919;28;20049;-68
2023/10/08 04:00:31;;;;;;;28.17;20.40;;;;;;;;;;5030886;28;20105;-68
2023/10/08 04:06:55;;;;;;;28.17;20.50;;;;;;;;;;5030803;28;20052;-68
2023/10/08 04:10:38;;;;;;;29.00;21.10;;;19.30;99.50;;;;;;5030713;28;20042;-69
2023/10/08 04:13:30;;;;;;;25.37;20.87;;;;;;;;;;5030489;28;20552;-68
2023/10/08 04:16:37;;;;;;;30.95;21.88;;;;;;;;;;5031101;28;20048;-68
2023/10/08 04:19:42;;;;;;;34.13;21.88;;;;;;;;;;5030581;28;20504;-68
2023/10/08 04:22:46;;;;;;;29.42;22.20;;;;;;;;;;5030774;28;20043;-68
2023/10/08 04:25:54;;;;;;;31.98;21.48;;;;;;;;;;5030589;28;20037;-68
2023/10/08 04:29:02;;;;;;;30.55;22.30;;;18.80;99.90;;;;;;5030612;28;20583;-69
2023/10/08 04:32:12;;;;;;;31.30;22.83;;;;;;;;;;5030582;28;20056;-69
2023/10/08 04:35:16;;;;;;;33.80;22.65;;;;;;;;;;5030607;28;20041;-68
2023/10/08 04:38:22;;;;;;;34.83;22.77;;;18.40;99.90;;;;;;5030652;28;20053;-68
2023/10/08 04:41:28;;;;;;;28.13;21.77;;;;;;;;;;5030550;28;20052;-67
2023/10/08 04:44:33;;;;;;;31.77;22.67;;;19.10;99.90;;;;;;5030712;28;20045;-69
2023/10/08 04:47:41;;;;;;;27.25;22.25;;;;;;;;;;5030681;28;20784;-68
2023/10/08 04:50:45;;;;;;;29.55;22.23;;;;;;;;;;5030561;28;20397;-69
2023/10/08 04:53:50;;;;;;;36.53;22.38;;;;;;;;;;5030275;28;20101;-68
2023/10/08 04:56:57;;;;;;;32.03;22.33;;;;;;;;;;5030229;28;20041;-68
2023/10/08 05:00:08;;;;;;;31.42;24.02;;;;;;;;;;5030205;28;20496;-69
2023/10/08 05:03:16;;;;;;;;;;;18.10;99.90;;;;;;5030634;28;20041;-68
2023/10/08 05:06:39;;;;;;;30.50;22.25;;;;;;;;;;5030443;28;19908;-69
2023/10/08 05:09:52;;;;;;;36.75;22.80;;;18.00;99.90;;;;;;5029833;28;20052;-68
2023/10/08 05:16:35;;;;;;;30.77;23.20;;;;;;;;;;5033931;28;20048;-70
2023/10/08 05:22:44;;;;;;;36.63;23.17;;;;;;;;;;5033839;28;20053;-68
2023/10/08 05:25:58;;;;;;;41.13;23.00;;;;;;;;;;5034034;28;20060;-68
2023/10/08 05:29:25;;;;;;;30.85;22.67;;;;;;;;;;5033606;28;20044;-68
2023/10/08 05:32:51;;;;;;;29.50;21.15;;;18.40;99.90;;;;;;5033441;28;20057;-68
2023/10/08 05:36:10;;;;;;;28.80;21.48;;;;;;;;;;5033781;28;20401;-69
2023/10/08 05:45:33;;;;;;;26.75;19.83;;;;;;;;;;5033390;28;20044;-68
2023/10/08 05:48:45;;;;;;;26.98;19.27;;;;;;;;;;5033396;28;20200;-68
2023/10/08 06:01:39;;;;;;;23.77;16.92;;;23.30;91.70;;;;;;5033204;28;20056;-69
2023/10/08 06:04:53;;;;;;;27.02;18.23;;;23.60;91.00;;;;;;5033073;28;20064;-68
2023/10/08 06:08:10;;;;;;;29.80;17.83;;;23.70;91.30;;;;;;5032419;28;20072;-68
2023/10/08 06:11:41;;;;;;;29.88;18.65;;;23.90;91.10;;;;;;5032842;28;20515;-68
2023/10/08 06:18:08;;;;;;;25.15;17.65;;;24.00;91.00;;;;;;5033006;28;20060;-69
2023/10/08 06:21:15;;;;;;;25.40;18.33;;;24.20;91.10;;;;;;5031907;28;20045;-68
2023/10/08 06:24:20;;;;;;;26.48;17.80;;;24.30;91.00;;;;;;5032349;28;20053;-68
2023/10/08 06:27:25;;;;;;;34.53;22.48;;;24.30;90.70;;;;;;5032163;28;20037;-68
2023/10/08 06:30:29;;;;;;;26.77;19.85;;;24.30;90.90;;;;;;5031574;28;20060;-69
2023/10/08 06:33:33;;;;;;;32.08;20.45;;;24.20;91.30;;;;;;5032243;28;20045;-68
2023/10/08 06:36:38;;;;;;;34.72;24.15;;;24.60;91.10;;;;;;5032452;28;20401;-67
2023/10/08 06:39:47;;;;;;;34.08;24.35;;;24.10;90.70;;;;;;5032639;28;20416;-68
2023/10/08 06:42:52;;;;;;;28.85;20.63;;;24.10;91.10;;;;;;5032440;28;20033;-68
2023/10/08 06:45:58;;;;;;;26.77;20.63;;;24.20;91.00;;;;;;5032476;28;20405;-68
2023/10/08 06:49:11;;;;;;;23.95;17.65;;;24.30;90.60;;;;;;5032516;28;20041;-68
2023/10/08 06:52:16;;;;;;;19.52;14.80;;;24.40;89.20;;;;;;5032155;28;20052;-69
2023/10/08 06:55:26;;;;;;;21.65;14.32;;;24.60;88.30;;;;;;5032080;28;20040;-68
2023/10/08 06:58:32;;;;;;;21.30;14.32;;;24.70;86.10;;;;;;5032056;28;20052;-69
2023/10/08 07:01:45;;;;;;;21.27;16.85;;;24.60;87.80;;;;;;5031814;28;20500;-68
2023/10/08 07:04:50;;;;;;;23.98;17.75;;;24.60;88.80;;;;;;5031958;28;20048;-70
2023/10/08 07:07:55;;;;;;;27.30;19.00;;;24.70;88.50;;;;;;5032011;28;20044;-70
2023/10/08 07:11:01;;;;;;;22.35;16.67;;;24.70;89.10;;;;;;5031019;28;20108;-68
2023/10/08 07:14:05;;;;;;;20.60;15.13;;;24.80;88.30;;;;;;5030258;28;20052;-68
2023/10/08 07:17:12;;;;;;;21.58;15.20;;;25.00;87.20;;;;;;5031536;28;20049;-69
2023/10/08 07:20:22;;;;;;;21.30;14.88;;;25.40;86.00;;;;;;5031508;28;20044;-69
2023/10/08 07:23:34;;;;;;;26.67;17.85;;;25.50;85.70;;;;;;5031143;28;20048;-67
2023/10/08 07:26:39;;;;;;;20.48;14.90;;;25.70;85.50;;;;;;5031536;28;20044;-68
2023/10/08 07:29:46;;;;;;;21.88;16.45;;;26.20;83.80;;;;;;5031463;28;20052;-68
2023/10/08 07:32:50;;;;;;;18.30;15.18;;;26.30;83.70;;;;;;5031275;28;20079;-68
2023/10/08 07:35:57;;;;;;;17.05;12.32;;;26.40;82.30;;;;;;5031310;28;20040;-69
2023/10/08 07:39:07;;;;;;;21.50;14.57;;;26.40;82.90;;;;;;5031527;28;20045;-69
2023/10/08 07:42:11;;;;;;;21.45;14.02;;;26.60;81.10;;;;;;5031514;28;20052;-68
2023/10/08 07:45:17;;;;;;;21.92;13.43;;;26.70;80.00;;;;;;5031385;28;20048;-68
2023/10/08 07:48:24;;;;;;;26.27;13.90;;;26.70;80.30;;;;;;5031340;28;20048;-68
2023/10/08 07:51:28;;;;;;;19.20;13.88;;;26.80;79.60;;;;;;5030989;28;20044;-68
2023/10/08 07:54:35;;;;;;;18.27;11.38;;;26.70;79.70;;;;;;5030992;28;20056;-68
2023/10/08 07:57:39;;;;;;;22.45;13.85;;;26.80;80.60;;;;;;5030862;28;20060;-68
2023/10/08 08:00:51;;;;;;;17.48;12.93;;;27.00;79.30;;;;;;5030598;28;20044;-69
2023/10/08 08:03:57;;;;;;;20.50;13.95;;;27.20;79.90;;;;;;5030740;28;20044;-68
2023/10/08 08:07:04;;;;;;;23.13;15.10;;;27.20;78.80;;;;;;5031047;28;20385;-68
2023/10/08 08:10:10;;;;;;;25.42;17.02;;;27.00;79.50;;;;;;5030599;28;20064;-68
2023/10/08 08:13:20;;;;;;;19.85;14.27;;;27.10;80.30;;;;;;5030171;28;20508;-68
2023/10/08 08:16:25;;;;;;;24.92;17.30;;;27.20;80.90;;;;;;5030747;28;20045;-67
2023/10/08 08:19:31;;;;;;;28.30;17.25;;;27.40;79.70;;;;;;5030096;28;20393;-69
2023/10/08 08:22:40;;;;;;;27.33;18.65;;;27.50;78.30;;;;;;5030553;28;20041;-70
2023/10/08 08:29:08;;;;;;;30.23;19.10;;;27.50;77.50;;;;;;5030751;28;20048;-69
2023/10/08 08:32:15;;;;;;;32.15;19.05;;;27.40;78.30;;;;;;5030406;28;20056;-69
2023/10/08 08:35:20;;;;;;;25.83;18.00;;;27.40;79.50;;;;;;5029642;28;20049;-68
2023/10/08 08:38:24;;;;;;;30.10;17.40;;;27.40;79.70;;;;;;5030793;28;20044;-69
2023/10/08 08:41:28;;;;;;;24.08;15.90;;;27.40;79.40;;;;;;5030716;28;20053;-69
2023/10/08 08:44:35;;;;;;;22.40;16.20;;;27.30;79.30;;;;;;5030327;28;20049;-68
2023/10/08 08:47:41;;;;;;;22.98;14.93;;;27.50;79.30;;;;;;5030706;28;20041;-68
2023/10/08 08:50:47;;;;;;;19.45;14.93;;;27.50;78.30;;;;;;5034236;28;20393;-69
2023/10/08 08:53:52;;;;;;;26.48;15.52;;;27.50;78.30;;;;;;5034132;28;20064;-69
2023/10/08 08:57:04;;;;;;;20.08;13.50;;;27.50;78.20;;;;;;5034462;28;20045;-69
2023/10/08 09:00:11;;;;;;;21.55;13.80;;;27.60;78.20;;;;;;5034023;28;20052;-68
2023/10/08 09:03:15;;;;;;;15.43;12.30;;;27.80;77.20;;;;;;5034006;28;20044;-68
2023/10/08 09:06:19;;;;;;;17.13;12.32;;;27.90;77.80;;;;;;5033154;28;20044;-68
2023/10/08 09:09:30;;;;;;;15.90;12.38;;;27.90;77.10;;;;;;5033975;28;20397;-69
2023/10/08 09:12:35;;;;;;;21.33;13.13;;;28.00;77.20;;;;;;5033492;28;20064;-69
2023/10/08 09:15:39;;;;;;;21.40;12.68;;;28.00;76.70;;;;;;5033081;28;20147;-68
2023/10/08 09:18:52;;;;;;;16.38;11.13;;;28.20;76.00;;;;;;5033731;28;20137;-67
2023/10/08 09:22:04;;;;;;;16.02;10.80;;;29.20;76.40;;;;;;5034063;28;20049;-68
2023/10/08 09:25:08;;;;;;;18.77;10.50;;;28.30;76.30;;;;;;5033645;28;20047;-70
2023/10/08 09:28:12;;;;;;;19.70;10.82;;;28.50;75.60;;;;;;5033864;28;20049;-69
2023/10/08 09:31:17;;;;;;;15.88;9.60;;;28.60;73.40;;;;;;5033588;28;20052;-69
2023/10/08 09:34:31;;;;;;;15.45;10.52;;;28.70;71.00;;;;;;5033379;28;20048;-68
2023/10/08 09:37:35;;;;;;;12.32;10.07;;;28.70;71.40;;;;;;5033443;28;20048;-69
2023/10/08 09:40:41;;;;;;;15.45;10.52;;;28.70;71.10;;;;;;5033151;28;20392;-68
2023/10/08 09:43:47;;;;;;;15.70;9.85;;;28.80;71.00;;;;;;5033305;28;20519;-69
2023/10/08 09:47:06;;;;;;;13.70;9.90;;;29.00;70.30;;;;;;5033653;28;20503;-71
2023/10/08 09:50:12;;;;;;;13.93;8.82;;;29.00;68.80;;;;;;5033430;28;20048;-69
2023/10/08 09:53:22;;;;;;;12.00;8.73;;;29.10;70.10;;;;;;5033229;28;20052;-68
2023/10/08 09:56:29;;;;;;;15.65;9.90;;;29.20;68.90;;;;;;5032411;28;20040;-68
2023/10/08 09:59:34;;;;;;;12.90;8.57;;;29.20;68.50;;;;;;5033022;28;20035;-68
2023/10/08 10:02:38;;;;;;;12.85;9.13;;;29.20;68.30;;;;;;5033092;28;20052;-68
2023/10/08 10:05:42;;;;;;;13.52;8.98;;;29.30;67.80;;;;;;5032897;28;20045;-70
2023/10/08 10:08:48;;;;;;;13.95;8.98;;;29.30;67.40;;;;;;5032275;28;20048;-69
2023/10/08 10:11:54;;;;;;;13.93;9.15;;;29.30;66.40;;;;;;5032791;28;20504;-68
2023/10/08 10:15:00;;;;;;;13.45;7.82;;;29.20;66.50;;;;;;5032729;28;20052;-70
2023/10/08 10:18:14;;;;;;;11.05;7.57;;;29.20;65.80;;;;;;5032646;28;20040;-69
2023/10/08 10:21:18;;;;;;;10.25;7.80;;;29.20;64.90;;;;;;5032856;28;20067;-69
2023/10/08 10:24:33;;;;;;;9.25;6.82;;;29.20;63.50;;;;;;5032380;28;20049;-69
2023/10/08 10:27:39;;;;;;;9.88;7.10;;;29.30;63.20;;;;;;5032593;28;20062;-69
2023/10/08 10:30:43;;;;;;;11.32;6.82;;;29.40;63.40;;;;;;5032479;28;20053;-69
2023/10/08 10:33:49;;;;;;;10.95;6.70;;;29.40;61.90;;;;;;5032386;28;20056;-68
2023/10/08 10:36:56;;;;;;;11.10;7.28;;;29.40;60.30;;;;;;5032736;28;20045;-68
2023/10/08 10:40:09;;;;;;;10.57;7.28;;;29.50;61.60;;;;;;5032458;28;20048;-68
2023/10/08 10:43:15;;;;;;;9.10;6.45;;;29.50;61.50;;;;;;5032172;28;20056;-68
2023/10/08 10:46:31;;;;;;;11.52;9.52;;;29.50;61.10;;;;;;5032165;28;20424;-69
2023/10/08 10:49:36;;;;;;;11.40;7.25;;;29.40;59.30;;;;;;5032386;28;20052;-68
2023/10/08 10:56:05;;;;;;;10.25;6.75;;;29.30;60.10;;;;;;5031865;28;20040;-69
2023/10/08 10:59:18;;;;;;;12.15;6.57;;;29.30;60.20;;;;;;5031991;28;20052;-68
2023/10/08 11:02:30;;;;;;;10.13;6.80;;;29.10;59.60;;;;;;5031690;28;20044;-67
2023/10/08 11:05:37;;;;;;;12.52;6.78;;;29.20;60.20;;;;;;5032014;28;20045;-69
2023/10/08 11:08:46;;;;;;;14.32;7.05;;;29.10;60.90;;;;;;5031738;28;20044;-68
2023/10/08 11:11:54;;;;;;;11.93;7.55;;;29.00;60.80;;;;;;5030903;28;20531;-70
2023/10/08 11:14:59;;;;;;;10.32;6.90;;;28.90;60.90;;;;;;5031605;28;20048;-69
2023/10/08 11:18:10;;;;;;;8.57;6.97;;;28.90;61.60;;;;;;5031600;28;20053;-69
2023/10/08 11:21:15;;;;;;;9.45;7.03;;;28.80;62.30;;;;;;5031266;28;20459;-69
2023/10/08 11:24:33;;;;;;;11.63;7.90;;;28.80;62.20;;;;;;5030301;28;20100;-68
2023/10/08 11:27:38;;;;;;;10.45;8.20;;;28.80;62.90;;;;;;5031097;28;20045;-69
2023/10/08 11:30:42;;;;;;;9.82;7.53;;;28.70;62.70;;;;;;5031352;28;20044;-69
2023/10/08 11:33:56;;;;;;;14.27;8.18;;;28.10;62.60;;;;;;5031146;28;20053;-68
2023/10/08 11:36:59;;;;;;;9.75;7.55;;;28.70;63.20;;;;;;5031638;28;20491;-68
2023/10/08 11:40:15;;;;;;;12.38;8.15;;;28.80;62.70;;;;;;5031452;28;20044;-69
2023/10/08 11:43:19;;;;;;;10.82;8.48;;;28.60;63.10;;;;;;5031067;28;20495;-69
2023/10/08 11:46:38;;;;;;;11.18;7.80;;;28.60;63.10;;;;;;5030221;28;20535;-69
2023/10/08 11:49:47;;;;;;;10.13;7.28;;;28.60;63.40;;;;;;5031489;28;20049;-69
2023/10/08 11:52:51;;;;;;;11.00;8.02;;;28.50;63.40;;;;;;5031031;28;20060;-69
2023/10/08 11:55:56;;;;;;;10.38;8.18;;;28.60;63.70;;;;;;5031017;28;20044;-69
2023/10/08 11:59:08;;;;;;;8.82;6.97;;;28.60;64.20;;;;;;5031029;28;20048;-68
2023/10/08 12:02:16;;;;;;;9.77;7.20;;;28.60;63.70;;;;;;5031299;28;20417;-72
2023/10/08 12:05:23;;;;;;;13.25;7.10;;;28.60;64.30;;;;;;5030174;28;20040;-68
2023/10/08 12:08:28;;;;;;;10.02;7.22;;;28.60;63.60;;;;;;5030996;28;20052;-69
2023/10/08 12:11:33;;;;;;;11.55;8.23;;;28.50;64.20;;;;;;5030866;28;20048;-68
2023/10/08 12:14:37;;;;;;;12.07;8.02;;;28.40;64.40;;;;;;5031109;28;20052;-68
2023/10/08 12:17:41;;;;;;;12.32;8.75;;;28.40;64.10;;;;;;5031424;28;20049;-68
2023/10/08 12:20:46;;;;;;;11.55;9.05;;;28.50;64.20;;;;;;5030196;28;20041;-68
2023/10/08 12:23:51;;;;;;;11.93;8.65;;;28.40;64.10;;;;;;5031389;28;20040;-67
2023/10/08 12:26:55;;;;;;;13.23;8.98;;;28.40;62.90;;;;;;5034142;28;20045;-69
2023/10/08 12:29:59;;;;;;;11.13;8.05;;;28.30;63.30;;;;;;5034957;28;20037;-69
2023/10/08 12:33:06;;;;;;;9.23;7.38;;;28.40;63.40;;;;;;5034597;28;20056;-69
2023/10/08 12:36:11;;;;;;;10.98;7.85;;;28.30;63.60;;;;;;5034398;28;20040;-68
2023/10/08 12:39:15;;;;;;;11.15;7.43;;;28.20;64.10;;;;;;5034733;28;20121;-68
2023/10/08 12:42:20;;;;;;;10.95;7.70;;;28.20;63.90;;;;;;5034389;28;20047;-68
2023/10/08 12:45:27;;;;;;;10.18;7.93;;;29.70;64.10;;;;;;5034587;28;20524;-68
2023/10/08 12:48:31;;;;;;;10.23;7.45;;;28.20;63.50;;;;;;5034663;28;20049;-70
2023/10/08 12:51:41;;;;;;;11.20;8.77;;;28.30;63.40;;;;;;5034478;28;20041;-68
2023/10/08 12:54:45;;;;;;;16.02;10.48;;;28.20;64.00;;;;;;5034348;28;20504;-68
2023/10/08 12:57:55;;;;;;;12.82;9.93;;;;;;;;;;5033406;28;20087;-70
2023/10/08 13:01:03;;;;;;;11.73;8.38;;;28.10;63.20;;;;;;5034381;28;20042;-70
2023/10/08 13:04:07;;;;;;;9.93;8.00;;;28.10;64.20;;;;;;5034392;28;20432;-68
2023/10/08 13:07:12;;;;;;;11.20;8.23;;;28.20;64.30;;;;;;5033555;28;20084;-69
2023/10/08 13:10:16;;;;;;;12.18;8.30;;;28.10;64.60;;;;;;5033973;28;20468;-69
2023/10/08 13:13:21;;;;;;;10.90;8.20;;;26.70;62.90;;;;;;5033548;28;20060;-69
2023/10/08 13:16:37;;;;;;;13.05;8.27;;;28.10;63.90;;;;;;5034409;28;20037;-70
2023/10/08 13:19:42;;;;;;;10.73;8.38;;;28.10;63.40;;;;;;5034222;28;20218;-69
2023/10/08 13:22:46;;;;;;;14.95;7.63;;;28.10;63.50;;;;;;5033186;28;20045;-70
2023/10/08 13:25:58;;;;;;;9.05;7.65;;;28.10;64.20;;;;;;5021733;28;20060;-72
2023/10/08 13:29:02;;;;;;;10.73;7.47;;;28.00;64.00;;;;;;5034096;28;20044;-70
2023/10/08 13:32:06;;;;;;;11.40;7.18;;;27.60;64.30;;;;;;5033512;28;20041;-73
2023/10/08 13:35:11;;;;;;;9.73;6.88;;;28.10;64.90;;;;;;5032478;28;20048;-70
2023/10/08 13:38:20;;;;;;;11.20;7.03;;;28.00;64.20;;;;;;5033886;28;20044;-69
2023/10/08 13:41:29;;;;;;;9.68;7.65;;;28.50;65.20;;;;;;5033636;28;20048;-73
2023/10/08 13:44:32;;;;;;;9.48;7.07;;;28.00;65.00;;;;;;5033685;28;20404;-71
2023/10/08 13:47:39;;;;;;;8.60;6.28;;;28.00;64.90;;;;;;5032227;28;20443;-70
2023/10/08 13:50:43;;;;;;;8.85;7.15;;;27.90;64.90;;;;;;5033697;28;20623;-72
2023/10/08 13:53:52;;;;;;;9.82;7.20;;;27.80;64.40;;;;;;5032362;28;20053;-73
2023/10/08 13:57:01;;;;;;;9.80;6.32;;;27.90;65.10;;;;;;5033688;28;20419;-72
2023/10/08 14:00:12;;;;;;;7.65;6.25;;;27.90;64.80;;;;;;5033720;28;20500;-75
2023/10/08 14:03:21;;;;;;;9.65;7.20;;;28.10;65.50;;;;;;5033587;28;20037;-71
2023/10/08 14:06:25;;;;;;;9.77;7.05;;;27.90;65.30;;;;;;5033441;28;20100;-71
2023/10/08 14:09:36;;;;;;;8.93;6.00;;;27.70;64.70;;;;;;5033235;28;20037;-71
2023/10/08 14:12:40;;;;;;;9.75;6.80;;;27.70;64.40;;;;;;5032983;28;20049;-72
2023/10/08 14:15:47;;;;;;;7.88;6.50;;;27.70;65.00;;;;;;5033155;28;20496;-71
2023/10/08 14:18:59;;;;;;;8.95;7.07;;;27.70;64.80;;;;;;5032318;28;20048;-72
2023/10/08 14:22:04;;;;;;;11.05;7.28;;;27.50;64.80;;;;;;5032807;28;20091;-71
2023/10/08 14:25:13;;;;;;;9.32;6.20;;;26.90;64.10;;;;;;5032929;28;20056;-69
2023/10/08 14:28:39;;;;;;;9.88;7.22;;;27.60;65.20;;;;;;5032850;28;20076;-70
2023/10/08 14:31:48;;;;;;;9.73;6.72;;;27.60;66.00;;;;;;5032693;28;20176;-72
2023/10/08 14:44:41;;;;;;;9.93;7.22;;;27.60;70.50;;;;;;5033046;28;20053;-71
2023/10/08 14:47:46;;;;;;;9.55;7.45;;;27.50;70.90;;;;;;5031924;28;20200;-73
2023/10/08 14:50:51;;;;;;;13.48;7.63;;;27.50;71.10;;;;;;5032551;28;20048;-69
2023/10/08 14:53:58;;;;;;;9.65;7.65;;;27.50;71.40;;;;;;5032302;28;20457;-72
2023/10/08 14:57:05;;;;;;;17.73;7.95;;;27.50;71.50;;;;;;5032490;28;20040;-70
2023/10/08 15:00:11;;;;;;;9.73;7.82;;;27.50;72.10;;;;;;5032095;28;20045;-72
2023/10/08 15:03:16;;;;;;;14.80;8.10;;;27.50;72.40;;;;;;5032082;28;20497;-70
2023/10/08 15:06:20;;;;;;;11.25;7.43;;;25.10;71.10;;;;;;5032294;28;20492;-69
2023/10/08 15:09:28;;;;;;;10.35;7.82;;;27.40;73.30;;;;;;5019688;28;20504;-70
2023/10/08 15:12:34;;;;;;;11.82;7.60;;;27.40;73.80;;;;;;5032259;28;20053;-71
2023/10/08 15:15:39;;;;;;;8.68;7.28;;;27.40;74.10;;;;;;5032017;28;20096;-72
2023/10/08 15:18:44;;;;;;;11.77;7.40;;;27.40;74.20;;;;;;5031913;28;20044;-70
2023/10/08 15:21:51;;;;;;;9.85;7.53;;;27.30;74.40;;;;;;5031004;28;20403;-70
2023/10/08 15:24:55;;;;;;;10.73;7.70;;;27.40;74.60;;;;;;5031621;28;20037;-69
2023/10/08 15:28:01;;;;;;;9.18;6.85;;;27.30;74.20;;;;;;5031733;28;20060;-70
2023/10/08 15:31:07;;;;;;;10.73;7.68;;;27.20;74.00;;;;;;5031708;28;20045;-70
2023/10/08 15:34:12;;;;;;;13.05;7.43;;;27.20;74.60;;;;;;5031132;28;20539;-69
2023/10/08 15:37:18;;;;;;;14.25;7.45;;;27.20;74.50;;;;;;5030612;28;20596;-69
2023/10/08 15:40:22;;;;;;;9.55;7.60;;;27.20;74.50;;;;;;5031005;28;20044;-69
2023/10/08 15:43:26;;;;;;;9.48;7.20;;;27.20;74.40;;;;;;5029946;28;20044;-69
2023/10/08 15:46:31;;;;;;;9.85;7.07;;;27.20;73.80;;;;;;5030896;28;20048;-68
2023/10/08 15:49:34;;;;;;;11.45;8.20;;;27.10;74.20;;;;;;5030362;28;20067;-68
2023/10/08 15:52:39;;;;;;;12.65;8.10;;;27.10;73.70;;;;;;5031026;28;20049;-69
2023/10/08 15:55:43;;;;;;;10.70;7.53;;;27.10;74.20;;;;;;5030864;28;20048;-69
2023/10/08 15:58:47;;;;;;;11.80;7.53;;;25.40;73.10;;;;;;5030898;28;20412;-69
2023/10/08 16:01:51;;;;;;;7.85;6.43;;;27.00;74.50;;;;;;5030762;28;20508;-69
2023/10/08 16:04:55;;;;;;;14.05;8.50;;;27.00;75.00;;;;;;5030845;28;20037;-69
2023/10/08 16:07:59;;;;;;;11.32;7.78;;;26.80;75.00;;;;;;5030787;28;20044;-69
2023/10/08 16:11:03;;;;;;;12.48;7.88;;;26.90;75.60;;;;;;5031342;28;20044;-69
2023/10/08 16:14:07;;;;;;;15.68;7.85;;;25.00;74.60;;;;;;5029712;28;20064;-69
2023/10/08 16:17:15;;;;;;;11.00;8.00;;;26.80;76.40;;;;;;5030623;28;20044;-68
2023/10/08 16:20:20;;;;;;;12.82;7.85;;;26.70;76.40;;;;;;5030748;28;20049;-69
2023/10/08 16:23:26;;;;;;;14.55;8.27;;;26.60;76.30;;;;;;5030613;28;20080;-69
2023/10/08 16:26:30;;;;;;;12.02;8.23;;;26.60;76.80;;;;;;5031085;28;20049;-68
2023/10/08 16:29:36;;;;;;;11.18;7.93;;;26.60;77.10;;;;;;5030259;28;20052;-68
2023/10/08 16:32:41;;;;;;;14.30;8.43;;;26.40;77.40;;;;;;5030877;28;20045;-68
2023/10/08 16:35:49;;;;;;;12.70;8.10;;;26.40;77.60;;;;;;5030797;28;20052;-69
2023/10/08 16:38:53;;;;;;;14.13;9.30;;;26.40;77.90;;;;;;5030753;28;20522;-69
2023/10/08 16:41:57;;;;;;;16.92;9.00;;;26.30;78.00;;;;;;5030568;28;20056;-69
2023/10/08 16:45:03;;;;;;;14.35;9.00;;;26.20;78.10;;;;;;5030847;28;20376;-70
2023/10/08 16:48:07;;;;;;;15.38;9.00;;;27.30;79.10;;;;;;5030451;28;20117;-69
2023/10/08 16:51:12;;;;;;;14.75;8.70;;;26.10;78.40;;;;;;5030482;28;20041;-68
2023/10/08 16:54:18;;;;;;;11.60;8.82;;;26.10;78.40;;;;;;5030323;28;20057;-68
2023/10/08 16:57:23;;;;;;;13.30;8.75;;;26.00;78.60;;;;;;5018358;28;20429;-69
2023/10/08 17:00:30;;;;;;;14.07;9.63;;;25.90;78.70;;;;;;5030721;28;20508;-68
2023/10/08 17:03:33;;;;;;;18.52;9.60;;;25.60;78.60;;;;;;5029389;28;20381;-69
2023/10/08 17:06:37;;;;;;;15.02;9.52;;;25.80;79.40;;;;;;5030702;28;20043;-68